TimeEST,TemperatureF,Dew PointF,Humidity,Sea Level PressureIn,VisibilityMPH,Wind Direction,Wind SpeedMPH,Gust SpeedMPH,PrecipitationIn,Events,Conditions,WindDirDegrees,DateUTC
12:54 AM,37.0,28.0,70,30.06,10.0,North,3.5,-,N/A,,Clear,360,2013-01-18 05:54:00
1:54 AM,36.0,28.0,73,30.08,10.0,NNW,3.5,-,N/A,,Clear,330,2013-01-18 06:54:00
2:54 AM,36.0,28.0,73,30.10,10.0,Calm,Calm,-,N/A,,Overcast,0,2013-01-18 07:54:00
3:54 AM,35.1,28.0,76,30.11,10.0,NNW,8.1,-,N/A,,Mostly Cloudy,330,2013-01-18 08:54:00
4:54 AM,34.0,25.0,70,30.14,10.0,North,6.9,-,N/A,,Overcast,10,2013-01-18 09:54:00
5:54 AM,34.0,23.0,64,30.20,10.0,North,13.8,-,0.00,Rain,Light Rain,350,2013-01-18 10:54:00
6:54 AM,30.9,17.1,57,30.28,10.0,NNW,20.7,27.6,0.00,,Overcast,340,2013-01-18 11:54:00
7:54 AM,28.9,12.9,51,30.35,10.0,North,12.7,27.6,N/A,,Clear,350,2013-01-18 12:54:00
8:54 AM,28.9,10.0,45,30.41,10.0,North,19.6,27.6,N/A,,Clear,360,2013-01-18 13:54:00
9:54 AM,30.0,9.0,41,30.45,10.0,NNW,15.0,21.9,N/A,,Clear,340,2013-01-18 14:54:00
10:54 AM,30.0,9.0,41,30.48,10.0,NNW,19.6,26.5,N/A,,Mostly Cloudy,340,2013-01-18 15:54:00
11:54 AM,30.0,8.1,40,30.47,10.0,NNW,11.5,19.6,N/A,,Clear,330,2013-01-18 16:54:00
12:54 PM,32.0,9.0,38,30.45,10.0,NNW,10.4,20.7,N/A,,Clear,330,2013-01-18 17:54:00
1:54 PM,32.0,9.0,38,30.46,10.0,NNW,10.4,-,N/A,,Clear,340,2013-01-18 18:54:00
2:54 PM,32.0,8.1,37,30.47,10.0,North,10.4,-,N/A,,Clear,350,2013-01-18 19:54:00
3:54 PM,30.9,8.1,38,30.48,10.0,West,6.9,-,N/A,,Clear,270,2013-01-18 20:54:00
4:54 PM,30.0,8.1,40,30.50,10.0,WNW,8.1,-,N/A,,Clear,300,2013-01-18 21:54:00
5:54 PM,28.9,9.0,43,30.50,10.0,WNW,3.5,-,N/A,,Clear,300,2013-01-18 22:54:00
6:54 PM,28.0,10.9,49,30.52,10.0,SW,3.5,-,N/A,,Clear,220,2013-01-18 23:54:00
7:54 PM,28.9,9.0,43,30.51,10.0,SW,4.6,-,N/A,,Clear,220,2013-01-19 00:54:00
8:54 PM,28.0,10.0,47,30.50,10.0,Calm,Calm,-,N/A,,Clear,0,2013-01-19 01:54:00
9:54 PM,28.9,10.9,47,30.49,10.0,Calm,Calm,-,N/A,,Clear,0,2013-01-19 02:54:00
10:54 PM,28.0,10.9,49,30.46,10.0,Calm,Calm,-,N/A,,Clear,0,2013-01-19 03:54:00
11:54 PM,28.0,10.9,49,30.45,10.0,South,4.6,-,N/A,,Clear,180,2013-01-19 04:54:00